createdAt,value
2023-01-30T00:02:10.565Z,68.00
2023-01-30T00:04:39.520Z,68.20
2023-01-30T00:07:08.500Z,68.40
2023-01-30T00:09:37.466Z,67.90
2023-01-30T00:12:06.746Z,68.80
2023-01-30T00:14:35.667Z,68.00
2023-01-30T00:17:04.630Z,67.60
2023-01-30T00:19:33.493Z,67.50
2023-01-30T00:22:02.368Z,67.50
2023-01-30T00:24:31.532Z,67.70
2023-01-30T00:27:00.666Z,67.30
2023-01-30T00:29:29.624Z,67.20
2023-01-30T00:31:58.518Z,66.90
2023-01-30T00:34:27.450Z,67.20
2023-01-30T00:37:07.855Z,66.90
2023-01-30T00:39:37.533Z,66.80
2023-01-30T00:42:25.114Z,66.60
2023-01-30T00:45:12.208Z,66.50
2023-01-30T00:47:41.122Z,66.50
2023-01-30T00:50:10.601Z,66.90
2023-01-30T00:52:39.467Z,66.60
2023-01-30T00:55:09.070Z,66.80
2023-01-30T00:57:38.004Z,66.70
2023-01-30T01:00:07.931Z,66.60
2023-01-30T01:02:37.261Z,66.30
2023-01-30T01:05:06.522Z,65.50
2023-01-30T01:07:35.377Z,64.80
2023-01-30T01:10:04.342Z,64.50
2023-01-30T01:12:33.266Z,63.90
2023-01-30T01:15:02.184Z,63.80
2023-01-30T01:17:31.290Z,63.20
2023-01-30T01:20:00.223Z,63.70
2023-01-30T01:22:29.195Z,62.10
2023-01-30T01:24:58.046Z,64.10
2023-01-30T01:27:27.007Z,63.70
2023-01-30T01:29:56.019Z,64.40
2023-01-30T01:32:25.450Z,62.80
2023-01-30T01:34:54.493Z,62.30
2023-01-30T01:37:23.412Z,61.80
2023-01-30T01:40:10.534Z,61.00
2023-01-30T01:42:41.031Z,61.40
2023-01-30T01:45:17.510Z,61.20
2023-01-30T01:47:55.729Z,61.70
2023-01-30T01:50:46.655Z,60.40
2023-01-30T01:53:19.178Z,60.00
2023-01-30T01:55:51.099Z,59.20
2023-01-30T01:58:43.170Z,59.30
2023-01-30T02:01:12.145Z,56.90
2023-01-30T02:03:46.850Z,57.90
2023-01-30T02:06:17.671Z,57.80
2023-01-30T02:09:01.975Z,57.60
2023-01-30T02:11:51.085Z,56.70
2023-01-30T02:14:21.143Z,51.80
2023-01-30T02:16:50.067Z,52.70
2023-01-30T02:19:47.977Z,52.40
2023-01-30T02:22:39.022Z,53.90
2023-01-30T02:25:26.065Z,54.80
2023-01-30T02:28:10.538Z,54.20
2023-01-30T02:30:57.782Z,53.40
2023-01-30T02:33:27.005Z,53.80
2023-01-30T02:36:08.481Z,53.40
2023-01-30T02:38:40.480Z,52.10
2023-01-30T02:41:26.672Z,51.10
2023-01-30T02:43:55.857Z,53.30
2023-01-30T02:46:55.784Z,51.30
2023-01-30T02:49:36.622Z,51.50
2023-01-30T02:52:08.463Z,50.30
2023-01-30T02:54:37.394Z,49.80
2023-01-30T02:57:17.900Z,50.00
2023-01-30T02:59:50.548Z,48.60
2023-01-30T03:02:51.789Z,50.80
2023-01-30T03:06:02.174Z,51.00
2023-01-30T03:08:46.117Z,50.20
2023-01-30T03:11:15.272Z,50.50
2023-01-30T03:14:03.722Z,51.40
2023-01-30T03:16:41.225Z,48.90
2023-01-30T03:19:14.526Z,49.80
2023-01-30T03:21:47.358Z,50.60
2023-01-30T03:24:17.075Z,50.70
2023-01-30T03:26:51.436Z,49.90
2023-01-30T03:29:20.279Z,48.90
2023-01-30T03:31:49.209Z,49.60
2023-01-30T03:34:18.094Z,49.30
2023-01-30T03:36:50.072Z,49.20
2023-01-30T03:39:19.261Z,49.90
2023-01-30T03:41:48.266Z,49.60
2023-01-30T03:44:17.391Z,48.90
2023-01-30T03:46:46.551Z,49.40
2023-01-30T03:49:15.496Z,48.20
2023-01-30T03:51:44.369Z,48.70
2023-01-30T03:54:13.334Z,46.10
2023-01-30T03:56:42.223Z,49.00
2023-01-30T03:59:11.181Z,49.30
2023-01-30T04:01:40.146Z,48.80
2023-01-30T04:04:09.170Z,45.40
2023-01-30T04:06:38.024Z,48.90
2023-01-30T04:09:07.084Z,49.50
2023-01-30T04:11:36.027Z,47.70
2023-01-30T04:14:04.971Z,48.30
2023-01-30T04:16:33.918Z,47.30
2023-01-30T04:19:02.813Z,46.70
2023-01-30T04:21:31.655Z,48.40
2023-01-30T04:24:00.523Z,46.50
2023-01-30T04:26:29.469Z,45.70
2023-01-30T04:28:58.464Z,47.20
2023-01-30T04:31:27.499Z,49.50
2023-01-30T04:33:56.355Z,49.20
2023-01-30T04:36:25.330Z,49.40
2023-01-30T04:38:54.467Z,45.90
2023-01-30T04:41:23.363Z,46.80
2023-01-30T04:43:52.242Z,48.50
2023-01-30T04:46:21.183Z,47.40
2023-01-30T04:48:50.118Z,47.60
2023-01-30T04:51:19.006Z,48.70
2023-01-30T04:53:47.897Z,47.40
2023-01-30T04:56:16.960Z,48.00
2023-01-30T04:58:45.843Z,45.30
2023-01-30T05:01:17.166Z,45.90
2023-01-30T05:03:46.169Z,45.10
2023-01-30T05:06:15.040Z,46.40
2023-01-30T05:08:46.596Z,44.20
2023-01-30T05:11:15.729Z,45.40
2023-01-30T05:13:45.143Z,46.10
2023-01-30T05:16:14.929Z,46.90
2023-01-30T05:18:44.367Z,47.10
2023-01-30T05:21:16.006Z,46.80
2023-01-30T05:23:45.613Z,47.10
2023-01-30T05:26:16.047Z,47.50
2023-01-30T05:28:45.236Z,46.60
2023-01-30T05:31:15.569Z,45.50
2023-01-30T05:33:47.637Z,45.90
2023-01-30T05:36:18.819Z,39.20
2023-01-30T05:38:48.268Z,44.50
2023-01-30T05:41:18.071Z,46.00
2023-01-30T05:43:50.470Z,45.30
2023-01-30T05:46:19.608Z,46.10
2023-01-30T05:48:48.626Z,44.70
2023-01-30T05:51:19.826Z,43.50
2023-01-30T05:53:49.238Z,45.10
2023-01-30T05:56:18.745Z,46.50
2023-01-30T05:58:57.984Z,45.70
2023-01-30T06:01:27.398Z,41.40
2023-01-30T06:03:57.188Z,45.80
2023-01-30T06:06:26.860Z,44.50
2023-01-30T06:08:57.244Z,45.50
2023-01-30T06:11:26.565Z,45.30
2023-01-30T06:13:55.566Z,45.40
2023-01-30T06:16:24.600Z,45.80
2023-01-30T06:18:53.551Z,43.80
2023-01-30T06:21:22.508Z,45.20
2023-01-30T06:23:51.526Z,45.00
2023-01-30T06:26:20.449Z,44.20
2023-01-30T06:28:50.872Z,43.60
2023-01-30T06:31:20.225Z,44.40
2023-01-30T06:33:50.503Z,44.40
2023-01-30T06:36:19.425Z,44.40
2023-01-30T06:38:49.771Z,45.60
2023-01-30T06:41:18.647Z,41.80
2023-01-30T06:43:47.604Z,44.30
2023-01-30T06:46:16.572Z,44.90
2023-01-30T06:48:45.447Z,45.30
2023-01-30T06:51:14.479Z,45.40
2023-01-30T06:53:43.364Z,44.50
2023-01-30T06:56:12.254Z,45.70
2023-01-30T06:58:41.171Z,45.60
2023-01-30T07:01:10.066Z,44.60
2023-01-30T07:03:39.194Z,43.00
2023-01-30T07:06:08.206Z,44.40
2023-01-30T07:08:37.108Z,44.50
2023-01-30T07:11:07.020Z,43.40
2023-01-30T07:13:35.919Z,41.50
2023-01-30T07:16:04.916Z,43.60
2023-01-30T07:18:33.851Z,44.90
2023-01-30T07:21:02.770Z,44.10
2023-01-30T07:23:31.662Z,44.30
2023-01-30T07:26:00.545Z,43.20
2023-01-30T07:28:29.410Z,44.70
2023-01-30T07:31:01.908Z,43.60
2023-01-30T07:33:30.870Z,44.00
2023-01-30T07:35:59.775Z,44.30
2023-01-30T07:38:28.736Z,44.30
2023-01-30T07:41:02.142Z,44.00
2023-01-30T07:43:31.081Z,43.00
2023-01-30T07:46:03.105Z,43.00
2023-01-30T07:48:32.079Z,43.10
2023-01-30T07:51:00.973Z,43.50
2023-01-30T07:53:29.903Z,42.10
2023-01-30T07:55:58.894Z,40.30
2023-01-30T07:58:30.944Z,41.60
2023-01-30T08:00:59.886Z,42.40
2023-01-30T08:03:32.699Z,41.80
2023-01-30T08:06:01.596Z,42.50
2023-01-30T08:08:31.287Z,40.80
2023-01-30T08:11:00.169Z,43.00
2023-01-30T08:13:29.188Z,42.40
2023-01-30T08:16:05.441Z,40.90
2023-01-30T08:18:37.385Z,42.50
2023-01-30T08:21:08.155Z,43.30
2023-01-30T08:23:37.056Z,42.30
2023-01-30T08:26:07.445Z,42.30
2023-01-30T08:28:36.418Z,42.60
2023-01-30T08:31:10.218Z,42.10
2023-01-30T08:33:38.878Z,42.00
2023-01-30T08:36:08.213Z,37.60
2023-01-30T08:38:37.172Z,41.00
2023-01-30T08:41:09.574Z,42.00
2023-01-30T08:43:38.643Z,41.70
2023-01-30T08:46:07.893Z,41.90
2023-01-30T08:48:49.243Z,40.50
2023-01-30T08:51:19.011Z,42.00
2023-01-30T08:53:47.909Z,41.20
2023-01-30T08:56:17.061Z,40.80
2023-01-30T08:58:47.681Z,41.10
2023-01-30T09:01:19.782Z,41.20
2023-01-30T09:03:49.113Z,40.10
2023-01-30T09:06:18.150Z,40.50
2023-01-30T09:08:47.040Z,41.60
2023-01-30T09:11:16.059Z,41.90
2023-01-30T09:13:47.054Z,42.20
2023-01-30T09:16:17.621Z,41.30
2023-01-30T09:18:46.925Z,41.60
2023-01-30T09:21:16.045Z,40.00
2023-01-30T09:23:44.980Z,41.30
2023-01-30T09:26:14.003Z,41.80
2023-01-30T09:28:43.123Z,41.90
2023-01-30T09:31:12.066Z,41.90
2023-01-30T09:33:40.988Z,42.30
2023-01-30T09:36:10.495Z,42.70
2023-01-30T09:38:39.457Z,42.40
2023-01-30T09:41:48.891Z,42.40
2023-01-30T09:44:46.033Z,42.40
2023-01-30T09:47:20.347Z,42.80
2023-01-30T09:50:04.385Z,41.90
2023-01-30T09:52:37.031Z,42.00
2023-01-30T09:55:20.654Z,42.10
2023-01-30T09:57:50.925Z,42.50
2023-01-30T10:00:25.058Z,42.60
2023-01-30T10:03:15.177Z,43.20
2023-01-30T10:05:54.565Z,43.10
2023-01-30T10:09:01.773Z,42.90
2023-01-30T10:12:03.905Z,42.40
2023-01-30T10:14:47.847Z,43.10
2023-01-30T10:17:26.026Z,42.80
2023-01-30T10:20:06.254Z,42.50
2023-01-30T10:22:44.096Z,42.60
2023-01-30T10:25:39.089Z,42.70
2023-01-30T10:28:28.082Z,41.70
2023-01-30T10:31:17.753Z,41.90
2023-01-30T10:34:01.071Z,41.90
2023-01-30T10:37:01.786Z,42.40
2023-01-30T10:39:55.308Z,42.40
2023-01-30T10:42:44.261Z,41.90
2023-01-30T10:45:26.592Z,42.50
2023-01-30T10:48:11.815Z,42.40
2023-01-30T10:50:54.861Z,42.70
2023-01-30T10:53:34.445Z,42.70
2023-01-30T10:56:31.647Z,42.80
2023-01-30T10:59:22.050Z,43.00
2023-01-30T11:01:57.450Z,42.90
2023-01-30T11:04:44.198Z,42.90
2023-01-30T11:07:13.950Z,43.10
2023-01-30T11:09:48.989Z,42.90
2023-01-30T11:12:18.017Z,43.30
2023-01-30T11:15:00.773Z,43.40
2023-01-30T11:17:43.211Z,43.80
2023-01-30T11:20:25.537Z,43.40
2023-01-30T11:23:07.662Z,43.60
2023-01-30T11:26:10.563Z,43.40
2023-01-30T11:28:47.596Z,43.20
2023-01-30T11:31:41.999Z,43.50
2023-01-30T11:34:25.515Z,43.10
2023-01-30T11:36:54.597Z,43.60
2023-01-30T11:39:29.721Z,43.60
2023-01-30T11:41:59.821Z,44.00
2023-01-30T11:44:34.531Z,44.00
2023-01-30T11:47:15.006Z,44.00
2023-01-30T11:49:57.557Z,44.20
2023-01-30T11:52:40.097Z,44.20
2023-01-30T11:55:14.986Z,44.30
2023-01-30T11:57:48.641Z,44.50
2023-01-30T12:00:24.936Z,44.60
2023-01-30T12:02:56.091Z,44.70
2023-01-30T12:05:34.074Z,45.40
2023-01-30T12:08:39.276Z,44.90
2023-01-30T12:11:28.214Z,44.80
2023-01-30T12:14:20.684Z,45.00
2023-01-30T12:17:14.221Z,45.30
2023-01-30T12:20:06.808Z,45.30
2023-01-30T12:23:03.900Z,45.40
2023-01-30T12:25:56.409Z,45.50
2023-01-30T12:29:15.949Z,45.60
2023-01-30T12:32:00.864Z,45.60
2023-01-30T12:34:29.788Z,46.00
2023-01-30T12:37:19.997Z,46.00
2023-01-30T12:40:03.203Z,46.10
2023-01-30T12:42:50.436Z,46.10
2023-01-30T12:45:27.472Z,46.20
2023-01-30T12:48:23.882Z,46.40
2023-01-30T12:51:05.048Z,46.50
2023-01-30T12:53:49.556Z,46.60
2023-01-30T12:56:34.017Z,46.60
2023-01-30T12:59:02.922Z,46.40
2023-01-30T13:01:34.896Z,46.80
2023-01-30T13:04:32.070Z,47.00
2023-01-30T13:07:07.044Z,47.10
2023-01-30T13:09:41.945Z,47.30
2023-01-30T13:12:35.221Z,47.40
2023-01-30T13:15:09.890Z,47.60
2023-01-30T13:18:07.730Z,48.40
2023-01-30T13:20:54.875Z,48.90
2023-01-30T13:23:26.739Z,49.10
2023-01-30T13:26:20.414Z,49.60
2023-01-30T13:28:52.898Z,51.00
2023-01-30T13:31:28.213Z,50.70
2023-01-30T13:34:21.920Z,51.10
2023-01-30T13:37:15.346Z,51.50
2023-01-30T13:39:53.854Z,52.10
2023-01-30T13:42:43.005Z,51.70
2023-01-30T13:45:25.626Z,52.10
2023-01-30T13:48:18.790Z,52.40
2023-01-30T13:51:09.280Z,52.50
2023-01-30T13:53:49.024Z,53.20
2023-01-30T13:56:39.852Z,53.20
2023-01-30T13:59:37.498Z,52.90
2023-01-30T14:02:08.279Z,53.50
2023-01-30T14:04:43.353Z,53.20
2023-01-30T14:07:22.863Z,53.20
2023-01-30T14:10:16.901Z,53.00
2023-01-30T14:12:52.141Z,53.40
2023-01-30T14:15:26.744Z,53.10
2023-01-30T14:18:08.324Z,52.90
2023-01-30T14:20:45.688Z,53.10
2023-01-30T14:23:22.481Z,53.20
2023-01-30T14:25:57.657Z,53.30
2023-01-30T14:28:27.140Z,53.30
2023-01-30T14:31:04.517Z,53.50
2023-01-30T14:33:53.377Z,53.90
2023-01-30T14:36:35.847Z,53.90
2023-01-30T14:39:42.141Z,54.10
2023-01-30T14:42:28.631Z,54.50
2023-01-30T14:45:18.009Z,54.40
2023-01-30T14:47:48.138Z,54.30
2023-01-30T14:50:24.285Z,54.60
2023-01-30T14:52:57.862Z,54.60
2023-01-30T14:55:31.925Z,54.60
2023-01-30T14:58:04.247Z,54.80
2023-01-30T15:00:36.519Z,55.00
2023-01-30T15:03:10.928Z,55.70
2023-01-30T15:05:45.876Z,55.10
2023-01-30T15:08:23.359Z,55.30
2023-01-30T15:11:28.717Z,55.30
2023-01-30T15:14:09.637Z,56.00
2023-01-30T15:17:07.037Z,55.90
2023-01-30T15:20:08.108Z,56.60
2023-01-30T15:22:58.613Z,56.40
2023-01-30T15:25:32.886Z,56.30
2023-01-30T15:28:01.321Z,56.40
2023-01-30T15:30:58.458Z,59.20
2023-01-30T15:33:32.126Z,57.80
2023-01-30T15:36:02.133Z,57.10
2023-01-30T15:38:37.070Z,57.00
2023-01-30T15:41:08.146Z,56.80
2023-01-30T15:44:20.649Z,57.00
2023-01-30T15:47:00.645Z,57.70
2023-01-30T15:49:54.804Z,57.30
2023-01-30T15:52:30.042Z,58.00
2023-01-30T15:55:00.964Z,57.60
2023-01-30T15:57:34.348Z,57.40
2023-01-30T16:00:05.389Z,57.50
2023-01-30T16:02:38.919Z,57.70
2023-01-30T16:05:25.261Z,57.60
2023-01-30T16:07:57.372Z,57.80
2023-01-30T16:10:29.245Z,57.80
2023-01-30T16:12:59.602Z,58.00
2023-01-30T16:15:34.559Z,58.10
2023-01-30T16:18:39.086Z,58.10
2023-01-30T16:21:12.467Z,58.20
2023-01-30T16:23:54.679Z,58.70
2023-01-30T16:26:24.272Z,58.60
2023-01-30T16:29:00.678Z,58.80
2023-01-30T16:31:34.806Z,58.90
2023-01-30T16:34:04.268Z,58.70
2023-01-30T16:36:44.467Z,59.10
2023-01-30T16:39:34.347Z,58.80
2023-01-30T16:42:06.247Z,59.30
2023-01-30T16:44:35.116Z,59.10
2023-01-30T16:47:13.530Z,59.30
2023-01-30T16:49:47.281Z,59.20
2023-01-30T16:52:26.381Z,59.80
2023-01-30T16:54:57.775Z,60.00
2023-01-30T16:57:32.659Z,60.10
2023-01-30T17:00:02.306Z,60.10
2023-01-30T17:02:41.509Z,60.60
2023-01-30T17:05:40.697Z,60.40
2023-01-30T17:08:32.042Z,61.70
2023-01-30T17:11:02.983Z,61.90
2023-01-30T17:13:43.146Z,61.20
2023-01-30T17:16:35.961Z,61.50
2023-01-30T17:19:05.301Z,62.20
2023-01-30T17:21:45.393Z,61.80
2023-01-30T17:24:23.450Z,61.60
2023-01-30T17:27:01.339Z,62.00
2023-01-30T17:29:49.126Z,62.10
2023-01-30T17:32:18.681Z,61.90
2023-01-30T17:34:47.855Z,62.20
2023-01-30T17:37:25.493Z,61.80
2023-01-30T17:39:54.358Z,61.50
2023-01-30T17:42:23.259Z,62.10
2023-01-30T17:44:52.240Z,61.80
2023-01-30T17:47:22.247Z,61.70
2023-01-30T17:49:51.147Z,60.80
2023-01-30T17:52:20.177Z,60.50
2023-01-30T17:54:49.109Z,60.70
2023-01-30T17:57:18.282Z,60.20
2023-01-30T17:59:48.087Z,60.10
2023-01-30T18:02:17.038Z,59.90
2023-01-30T18:04:45.915Z,59.70
2023-01-30T18:07:17.703Z,59.70
2023-01-30T18:09:46.590Z,59.20
2023-01-30T18:12:15.489Z,59.20
2023-01-30T18:14:44.388Z,59.50
2023-01-30T18:17:13.660Z,59.00
2023-01-30T18:19:42.631Z,58.80
2023-01-30T18:22:11.624Z,58.80
2023-01-30T18:24:40.477Z,58.40
2023-01-30T18:27:09.389Z,58.60
2023-01-30T18:29:38.233Z,58.40
2023-01-30T18:32:07.277Z,58.50
2023-01-30T18:34:36.521Z,58.30
2023-01-30T18:37:05.435Z,58.50
2023-01-30T18:39:34.587Z,58.60
2023-01-30T18:42:04.201Z,58.60
2023-01-30T18:44:33.389Z,58.60
2023-01-30T18:47:02.291Z,58.60
2023-01-30T18:49:32.143Z,58.60
2023-01-30T18:52:01.020Z,58.70
2023-01-30T18:54:29.937Z,58.80
2023-01-30T18:56:58.906Z,58.90
2023-01-30T18:59:27.885Z,58.90
2023-01-30T19:01:56.743Z,59.00
2023-01-30T19:04:25.585Z,59.20
2023-01-30T19:06:55.951Z,59.20
2023-01-30T19:09:25.012Z,59.40
2023-01-30T19:12:12.153Z,59.40
2023-01-30T19:14:41.113Z,59.40
2023-01-30T19:17:10.118Z,59.50
2023-01-30T19:19:39.088Z,59.60
2023-01-30T19:22:07.975Z,59.70
2023-01-30T19:24:36.883Z,59.90
2023-01-30T19:27:06.662Z,59.90
2023-01-30T19:29:35.527Z,60.20
2023-01-30T19:32:04.607Z,60.20
2023-01-30T19:34:33.560Z,60.40
2023-01-30T19:37:02.442Z,60.60
2023-01-30T19:39:31.467Z,60.50
2023-01-30T19:42:00.355Z,60.50
2023-01-30T19:44:29.356Z,60.40
2023-01-30T19:46:58.283Z,60.50
2023-01-30T19:49:27.205Z,60.60
2023-01-30T19:51:57.941Z,60.50
2023-01-30T19:54:26.852Z,60.80
2023-01-30T19:56:55.718Z,61.00
2023-01-30T19:59:28.902Z,62.20
2023-01-30T20:01:57.809Z,61.30
2023-01-30T20:04:26.886Z,61.40
2023-01-30T20:06:55.771Z,61.70
2023-01-30T20:09:24.644Z,61.80
2023-01-30T20:11:53.533Z,61.70
2023-01-30T20:14:22.458Z,61.80
2023-01-30T20:16:52.180Z,61.90
2023-01-30T20:19:21.056Z,62.10
2023-01-30T20:21:50.043Z,62.10
2023-01-30T20:24:18.988Z,62.20
2023-01-30T20:26:48.647Z,62.50
2023-01-30T20:29:19.033Z,62.40
2023-01-30T20:31:48.028Z,62.40
2023-01-30T20:34:16.946Z,62.60
2023-01-30T20:36:45.836Z,62.70
2023-01-30T20:39:16.026Z,62.90
2023-01-30T20:41:45.307Z,62.80
2023-01-30T20:44:15.604Z,63.00
2023-01-30T20:46:46.953Z,63.20
2023-01-30T20:49:21.196Z,63.60
2023-01-30T20:51:52.321Z,63.70
2023-01-30T20:54:23.016Z,64.60
2023-01-30T20:56:54.681Z,64.70
2023-01-30T20:59:25.727Z,65.40
2023-01-30T21:01:55.418Z,65.10
2023-01-30T21:04:25.653Z,65.40
2023-01-30T21:06:54.738Z,65.80
2023-01-30T21:09:25.236Z,65.80
2023-01-30T21:11:54.412Z,66.00
2023-01-30T21:14:25.635Z,66.00
2023-01-30T21:16:55.508Z,66.20
2023-01-30T21:19:24.601Z,66.60
2023-01-30T21:21:56.121Z,66.80
2023-01-30T21:24:30.469Z,66.70
2023-01-30T21:26:59.278Z,67.00
2023-01-30T21:29:29.701Z,71.10
2023-01-30T21:31:59.892Z,68.20
2023-01-30T21:34:28.854Z,67.80
2023-01-30T21:37:29.998Z,67.70
2023-01-30T21:40:17.276Z,67.70
2023-01-30T21:43:04.803Z,68.50
2023-01-30T21:45:33.719Z,68.80
2023-01-30T21:48:02.666Z,69.40
2023-01-30T21:50:31.567Z,68.90
2023-01-30T21:53:00.583Z,68.60
2023-01-30T21:55:29.618Z,68.40
2023-01-30T21:57:59.021Z,68.60
2023-01-30T22:00:27.954Z,68.80
2023-01-30T22:02:56.803Z,68.90
2023-01-30T22:05:25.748Z,68.60
2023-01-30T22:07:54.689Z,68.70
2023-01-30T22:10:23.534Z,68.90
2023-01-30T22:12:52.403Z,69.50
2023-01-30T22:15:24.185Z,69.80
2023-01-30T22:17:53.161Z,69.60
2023-01-30T22:20:22.133Z,69.70
2023-01-30T22:22:51.044Z,70.10
2023-01-30T22:25:20.169Z,70.30
2023-01-30T22:27:49.230Z,70.20
2023-01-30T22:30:18.905Z,70.10
2023-01-30T22:32:47.896Z,70.40
2023-01-30T22:35:16.924Z,70.60
2023-01-30T22:37:46.109Z,70.50
2023-01-30T22:40:15.083Z,71.00
2023-01-30T22:42:49.424Z,70.50
2023-01-30T22:45:18.986Z,69.90
2023-01-30T22:47:48.563Z,70.60
2023-01-30T22:50:17.685Z,70.90
2023-01-30T22:52:47.585Z,70.80
2023-01-30T22:55:19.653Z,70.70
2023-01-30T22:57:50.416Z,70.60
2023-01-30T23:00:19.655Z,70.50
2023-01-30T23:02:51.714Z,70.40
2023-01-30T23:05:20.872Z,70.90
2023-01-30T23:07:49.995Z,71.10
2023-01-30T23:10:21.959Z,70.90
2023-01-30T23:13:10.675Z,70.80
2023-01-30T23:15:43.904Z,71.30
2023-01-30T23:18:30.853Z,71.10
2023-01-30T23:21:00.255Z,71.20
2023-01-30T23:23:29.554Z,71.30
2023-01-30T23:25:58.450Z,71.10
2023-01-30T23:28:27.354Z,71.40
2023-01-30T23:31:00.221Z,71.30
2023-01-30T23:33:29.097Z,71.30
2023-01-30T23:36:03.550Z,71.60
2023-01-30T23:38:32.215Z,71.60
2023-01-30T23:41:16.239Z,75.80
2023-01-30T23:43:46.564Z,72.90
2023-01-30T23:46:33.391Z,73.30
2023-01-30T23:49:07.939Z,73.50
2023-01-30T23:51:38.720Z,73.20
2023-01-30T23:54:08.204Z,72.90
2023-01-30T23:56:39.847Z,72.80
2023-01-30T23:59:09.341Z,72.80
